createdAt,value
2017-05-13T00:00:01.476Z,929.71
2017-05-13T00:00:14.089Z,929.69
2017-05-13T00:00:27.230Z,929.71
2017-05-13T00:00:40.484Z,929.7
2017-05-13T00:00:53.659Z,929.74
2017-05-13T00:01:06.280Z,929.73
2017-05-13T00:01:18.914Z,929.71
2017-05-13T00:01:31.096Z,929.71
2017-05-13T00:01:44.568Z,929.77
2017-05-13T00:01:57.715Z,929.72
2017-05-13T00:02:09.825Z,929.68
2017-05-13T00:02:22.456Z,929.7
2017-05-13T00:02:35.637Z,929.72
2017-05-13T00:02:48.336Z,929.72
2017-05-13T00:03:01.512Z,929.72
2017-05-13T00:03:14.673Z,929.71
2017-05-13T00:03:27.858Z,929.69
2017-05-13T00:03:41.075Z,929.69
2017-05-13T00:03:54.302Z,929.71
2017-05-13T00:04:07.445Z,929.69
2017-05-13T00:04:19.567Z,929.7
2017-05-13T00:04:32.662Z,929.7
2017-05-13T00:04:45.363Z,929.72
2017-05-13T00:04:59.334Z,929.69
2017-05-13T00:05:11.961Z,929.69
2017-05-13T00:05:25.134Z,929.7
2017-05-13T00:05:38.316Z,929.72
2017-05-13T00:05:51.443Z,929.68
2017-05-13T00:06:04.618Z,929.75
2017-05-13T00:06:17.300Z,929.74
2017-05-13T00:06:30.403Z,929.7
2017-05-13T00:06:43.560Z,929.7
2017-05-13T00:06:56.763Z,929.75
2017-05-13T00:07:08.889Z,929.76
2017-05-13T00:07:22.088Z,929.76
2017-05-13T00:07:35.298Z,929.72
2017-05-13T00:07:48.439Z,929.72
2017-05-13T00:08:01.083Z,929.72
2017-05-13T00:08:14.292Z,929.69
2017-05-13T00:08:27.480Z,929.73
2017-05-13T00:08:40.667Z,929.71
2017-05-13T00:08:53.343Z,929.74
2017-05-13T00:09:05.526Z,929.72
2017-05-13T00:09:18.737Z,929.72
2017-05-13T00:09:32.139Z,929.74
2017-05-13T00:09:45.277Z,929.74
2017-05-13T00:09:57.956Z,929.73
2017-05-13T00:10:11.053Z,929.74
2017-05-13T00:10:24.236Z,929.73
2017-05-13T00:10:37.475Z,929.74
2017-05-13T00:10:50.715Z,929.77
2017-05-13T00:11:03.355Z,929.77
2017-05-13T00:11:16.585Z,929.74
2017-05-13T00:11:29.774Z,929.74
2017-05-13T00:11:42.942Z,929.75
2017-05-13T00:11:56.170Z,929.76
2017-05-13T00:12:09.313Z,929.79
2017-05-13T00:12:21.470Z,929.79
2017-05-13T00:12:34.684Z,929.76
2017-05-13T00:12:47.795Z,929.77
2017-05-13T00:13:00.907Z,929.79
2017-05-13T00:13:14.162Z,929.78
2017-05-13T00:13:26.792Z,929.8
2017-05-13T00:13:39.933Z,929.8
2017-05-13T00:13:53.151Z,929.78
2017-05-13T00:14:06.296Z,929.81
2017-05-13T00:14:19.524Z,929.8
2017-05-13T00:14:32.648Z,929.79
2017-05-13T00:14:45.767Z,929.8
2017-05-13T00:14:58.930Z,929.79
2017-05-13T00:15:12.108Z,929.77
2017-05-13T00:15:24.281Z,929.81
2017-05-13T00:15:37.416Z,929.78
2017-05-13T00:15:50.578Z,929.83
2017-05-13T00:16:03.746Z,929.81
2017-05-13T00:16:16.493Z,929.8
2017-05-13T00:16:29.157Z,929.81
2017-05-13T00:16:42.341Z,929.78
2017-05-13T00:16:55.678Z,929.8
2017-05-13T00:17:08.758Z,929.79
2017-05-13T00:17:21.398Z,929.78
2017-05-13T00:17:34.561Z,929.79
2017-05-13T00:17:47.671Z,929.8
2017-05-13T00:18:00.784Z,929.75
2017-05-13T00:18:13.936Z,929.77
2017-05-13T00:18:26.574Z,929.79
2017-05-13T00:18:39.729Z,929.8
2017-05-13T00:18:52.932Z,929.77
2017-05-13T00:19:05.116Z,929.79
2017-05-13T00:19:17.726Z,929.79
2017-05-13T00:19:30.924Z,929.79
2017-05-13T00:19:44.081Z,929.8
2017-05-13T00:19:57.306Z,929.81
2017-05-13T00:20:10.539Z,929.82
2017-05-13T00:20:23.174Z,929.8
2017-05-13T00:20:36.298Z,929.78
2017-05-13T00:20:49.452Z,929.79
2017-05-13T00:21:02.136Z,929.81
2017-05-13T00:21:15.299Z,929.79
2017-05-13T00:21:28.437Z,929.78
2017-05-13T00:21:41.637Z,929.8
2017-05-13T00:21:54.774Z,929.77
2017-05-13T00:22:07.965Z,929.79
2017-05-13T00:22:20.084Z,929.8
2017-05-13T00:22:33.200Z,929.81
2017-05-13T00:22:46.358Z,929.77
2017-05-13T00:22:59.494Z,929.79
2017-05-13T00:23:12.159Z,929.77
2017-05-13T00:23:25.314Z,929.78
2017-05-13T00:23:38.464Z,929.79
2017-05-13T00:23:51.641Z,929.8
2017-05-13T00:24:04.254Z,929.78
2017-05-13T00:24:17.348Z,929.79
2017-05-13T00:24:30.480Z,929.81
2017-05-13T00:24:43.729Z,929.77
2017-05-13T00:24:56.874Z,929.78
2017-05-13T00:25:09.541Z,929.79
2017-05-13T00:25:22.693Z,929.8
2017-05-13T00:25:35.313Z,929.81
2017-05-13T00:25:48.447Z,929.81
2017-05-13T00:26:01.114Z,929.8
2017-05-13T00:26:13.794Z,929.78
2017-05-13T00:26:26.423Z,929.85
2017-05-13T00:26:39.590Z,929.77
2017-05-13T00:26:52.956Z,929.81
2017-05-13T00:27:05.157Z,929.81
2017-05-13T00:27:17.768Z,929.82
2017-05-13T00:27:30.456Z,929.82
2017-05-13T00:27:43.669Z,929.82
2017-05-13T00:27:56.823Z,929.82
2017-05-13T00:28:09.963Z,929.81
2017-05-13T00:28:22.604Z,929.81
2017-05-13T00:28:35.806Z,929.82
2017-05-13T00:28:48.439Z,929.8
2017-05-13T00:29:01.630Z,929.79
2017-05-13T00:29:14.317Z,929.81
2017-05-13T00:29:26.992Z,929.84
2017-05-13T00:29:39.698Z,929.79
2017-05-13T00:29:52.878Z,929.79
2017-05-13T00:30:05.993Z,929.84
2017-05-13T00:30:19.120Z,929.8
2017-05-13T00:30:31.774Z,929.81
2017-05-13T00:30:44.484Z,929.79
2017-05-13T00:30:57.678Z,929.83
2017-05-13T00:31:10.338Z,929.8
2017-05-13T00:31:23.516Z,929.79
2017-05-13T00:31:36.689Z,929.77
2017-05-13T00:31:50.098Z,929.79
2017-05-13T00:32:03.247Z,929.8
2017-05-13T00:32:15.916Z,929.78
2017-05-13T00:32:28.561Z,929.79
2017-05-13T00:32:41.763Z,929.8
2017-05-13T00:32:54.947Z,929.79
2017-05-13T00:33:08.112Z,929.8
2017-05-13T00:33:20.236Z,929.78
2017-05-13T00:33:33.407Z,929.81
2017-05-13T00:33:46.606Z,929.78
2017-05-13T00:33:59.209Z,929.82
2017-05-13T00:34:12.327Z,929.79
2017-05-13T00:34:24.970Z,929.81
2017-05-13T00:34:37.586Z,929.78
2017-05-13T00:34:50.761Z,929.79
2017-05-13T00:35:03.428Z,929.79
2017-05-13T00:35:16.545Z,929.78
2017-05-13T00:35:29.276Z,929.79
2017-05-13T00:35:42.435Z,929.78
2017-05-13T00:35:55.657Z,929.8
2017-05-13T00:36:08.340Z,929.78
2017-05-13T00:36:21.001Z,929.79
2017-05-13T00:36:33.726Z,929.79
2017-05-13T00:36:45.900Z,929.8
2017-05-13T00:36:59.200Z,929.78
2017-05-13T00:37:12.357Z,929.8
2017-05-13T00:37:24.979Z,929.79
2017-05-13T00:37:38.110Z,929.81
2017-05-13T00:37:51.260Z,929.8
2017-05-13T00:38:04.432Z,929.82
2017-05-13T00:38:17.123Z,929.78
2017-05-13T00:38:29.351Z,929.78
2017-05-13T00:38:42.495Z,929.8
2017-05-13T00:38:55.665Z,929.78
2017-05-13T00:39:08.316Z,929.79
2017-05-13T00:39:21.479Z,929.78
2017-05-13T00:39:34.685Z,929.81
2017-05-13T00:39:47.885Z,929.82
2017-05-13T00:40:01.086Z,929.82
2017-05-13T00:40:14.288Z,929.8
2017-05-13T00:40:27.432Z,929.8
2017-05-13T00:40:40.607Z,929.78
2017-05-13T00:40:53.745Z,929.78
2017-05-13T00:41:06.360Z,929.8
2017-05-13T00:41:18.991Z,929.76
2017-05-13T00:41:31.605Z,929.78
2017-05-13T00:41:44.732Z,929.73
2017-05-13T00:41:57.879Z,929.74
2017-05-13T00:42:11.072Z,929.77
2017-05-13T00:42:24.327Z,929.77
2017-05-13T00:42:37.478Z,929.74
2017-05-13T00:42:50.605Z,929.76
2017-05-13T00:43:03.821Z,929.76
2017-05-13T00:43:17.033Z,929.76
2017-05-13T00:43:30.193Z,929.76
2017-05-13T00:43:42.834Z,929.75
2017-05-13T00:43:56.057Z,929.73
2017-05-13T00:44:08.210Z,929.74
2017-05-13T00:44:20.927Z,929.73
2017-05-13T00:44:34.117Z,929.75
2017-05-13T00:44:47.231Z,929.71
2017-05-13T00:45:00.321Z,929.66
2017-05-13T00:45:13.015Z,929.73
2017-05-13T00:45:26.150Z,929.7
2017-05-13T00:45:39.262Z,929.71
2017-05-13T00:45:51.939Z,929.68
2017-05-13T00:46:05.105Z,929.72
2017-05-13T00:46:17.696Z,929.7
2017-05-13T00:46:30.378Z,929.68
2017-05-13T00:46:43.551Z,929.67
2017-05-13T00:46:56.933Z,929.69
2017-05-13T00:47:09.602Z,929.68
2017-05-13T00:47:21.238Z,929.7
2017-05-13T00:47:34.384Z,929.71
2017-05-13T00:47:47.570Z,929.69
2017-05-13T00:48:00.742Z,929.66
2017-05-13T00:48:13.422Z,929.64
2017-05-13T00:48:26.543Z,929.68
2017-05-13T00:48:39.775Z,929.65
2017-05-13T00:48:52.360Z,929.68
2017-05-13T00:49:05.075Z,929.67
2017-05-13T00:49:18.270Z,929.66
2017-05-13T00:49:31.449Z,929.67
2017-05-13T00:49:44.604Z,929.64
2017-05-13T00:49:57.767Z,929.67
2017-05-13T00:50:10.897Z,929.65
2017-05-13T00:50:24.073Z,929.65
2017-05-13T00:50:37.219Z,929.63
2017-05-13T00:50:49.832Z,929.64
2017-05-13T00:51:02.933Z,929.67
2017-05-13T00:51:16.165Z,929.66
2017-05-13T00:51:29.305Z,929.65
2017-05-13T00:51:42.470Z,929.68
2017-05-13T00:51:55.133Z,929.66
2017-05-13T00:52:08.302Z,929.69
2017-05-13T00:52:20.452Z,929.7
2017-05-13T00:52:33.629Z,929.68
2017-05-13T00:52:46.302Z,929.69
2017-05-13T00:52:59.455Z,929.66
2017-05-13T00:53:12.628Z,929.69
2017-05-13T00:53:25.239Z,929.67
2017-05-13T00:53:38.440Z,929.68
2017-05-13T00:53:51.593Z,929.67
2017-05-13T00:54:04.746Z,929.68
2017-05-13T00:54:17.432Z,929.69
2017-05-13T00:54:30.614Z,929.68
2017-05-13T00:54:43.717Z,929.7
2017-05-13T00:54:56.359Z,929.72
2017-05-13T00:55:09.531Z,929.69
2017-05-13T00:55:22.206Z,929.72
2017-05-13T00:55:34.327Z,929.72
2017-05-13T00:55:47.492Z,929.69
2017-05-13T00:56:00.635Z,929.69
2017-05-13T00:56:13.763Z,929.72
2017-05-13T00:56:25.920Z,929.72
2017-05-13T00:56:38.589Z,929.69
2017-05-13T00:56:51.260Z,929.68
2017-05-13T00:57:04.437Z,929.73
2017-05-13T00:57:17.619Z,929.7
2017-05-13T00:57:29.766Z,929.69
2017-05-13T00:57:42.406Z,929.7
2017-05-13T00:57:55.568Z,929.67
2017-05-13T00:58:08.289Z,929.7
2017-05-13T00:58:21.426Z,929.7
2017-05-13T00:58:34.596Z,929.7
2017-05-13T00:58:47.271Z,929.68
2017-05-13T00:58:59.927Z,929.69
2017-05-13T00:59:13.116Z,929.67
2017-05-13T00:59:25.217Z,929.66
2017-05-13T00:59:38.397Z,929.67
2017-05-13T00:59:51.600Z,929.65
2017-05-13T01:00:04.781Z,929.65
2017-05-13T01:00:17.459Z,929.63
2017-05-13T01:00:30.125Z,929.68
2017-05-13T01:00:42.307Z,929.7
2017-05-13T01:00:55.482Z,929.65
2017-05-13T01:01:08.598Z,929.65
2017-05-13T01:01:21.295Z,929.67
2017-05-13T01:01:34.444Z,929.67
2017-05-13T01:01:47.105Z,929.69
2017-05-13T01:01:59.776Z,929.68
2017-05-13T01:02:12.677Z,929.69
2017-05-13T01:02:25.384Z,929.66
2017-05-13T01:02:38.550Z,929.68
2017-05-13T01:02:51.260Z,929.66
2017-05-13T01:03:04.453Z,929.68
2017-05-13T01:03:17.627Z,929.64
2017-05-13T01:03:30.802Z,929.66
2017-05-13T01:03:43.990Z,929.67
2017-05-13T01:03:56.704Z,929.62
2017-05-13T01:04:09.862Z,929.65
2017-05-13T01:04:22.469Z,929.66
2017-05-13T01:04:35.628Z,929.66
2017-05-13T01:04:48.310Z,929.69
2017-05-13T01:05:01.527Z,929.66
2017-05-13T01:05:14.180Z,929.63
2017-05-13T01:05:26.880Z,929.64
2017-05-13T01:05:40.038Z,929.62
2017-05-13T01:05:53.141Z,929.64
2017-05-13T01:06:05.799Z,929.6
2017-05-13T01:06:18.491Z,929.6
2017-05-13T01:06:31.579Z,929.6
2017-05-13T01:06:44.738Z,929.62
2017-05-13T01:06:57.921Z,929.63
2017-05-13T01:07:11.080Z,929.62
2017-05-13T01:07:24.238Z,929.65
2017-05-13T01:07:37.434Z,929.64
2017-05-13T01:07:50.564Z,929.62
2017-05-13T01:08:03.800Z,929.63
2017-05-13T01:08:16.456Z,929.62
2017-05-13T01:08:29.567Z,929.58
2017-05-13T01:08:42.708Z,929.58
2017-05-13T01:08:55.889Z,929.58
2017-05-13T01:09:08.604Z,929.55
2017-05-13T01:09:21.318Z,929.58
2017-05-13T01:09:34.485Z,929.56
2017-05-13T01:09:47.682Z,929.58
2017-05-13T01:10:00.314Z,929.56
2017-05-13T01:10:13.462Z,929.55
2017-05-13T01:10:26.666Z,929.57
2017-05-13T01:10:39.370Z,929.58
2017-05-13T01:10:52.499Z,929.57
2017-05-13T01:11:05.637Z,929.58
2017-05-13T01:11:18.312Z,929.54
2017-05-13T01:11:31.495Z,929.57
2017-05-13T01:11:44.663Z,929.56
2017-05-13T01:11:57.876Z,929.58
2017-05-13T01:12:11.056Z,929.54
2017-05-13T01:12:24.268Z,929.56
2017-05-13T01:12:37.438Z,929.57
2017-05-13T01:12:50.149Z,929.53
2017-05-13T01:13:03.332Z,929.56
2017-05-13T01:13:16.524Z,929.56
2017-05-13T01:13:29.627Z,929.6
2017-05-13T01:13:42.861Z,929.59
2017-05-13T01:13:55.537Z,929.57
2017-05-13T01:14:08.676Z,929.58
2017-05-13T01:14:21.602Z,929.57
2017-05-13T01:14:34.808Z,929.6
2017-05-13T01:14:47.940Z,929.64
2017-05-13T01:15:01.055Z,929.6
2017-05-13T01:15:14.244Z,929.6
2017-05-13T01:15:26.948Z,929.55
2017-05-13T01:15:40.087Z,929.57
2017-05-13T01:15:52.211Z,929.6
2017-05-13T01:16:05.399Z,929.57
2017-05-13T01:16:18.077Z,929.6
2017-05-13T01:16:31.245Z,929.61
2017-05-13T01:16:44.456Z,929.58
2017-05-13T01:16:57.632Z,929.59
2017-05-13T01:17:10.434Z,929.59
2017-05-13T01:17:23.077Z,929.55
2017-05-13T01:17:35.773Z,929.6
2017-05-13T01:17:48.447Z,929.58
2017-05-13T01:18:01.695Z,929.59
2017-05-13T01:18:14.370Z,929.61
2017-05-13T01:18:26.511Z,929.58
2017-05-13T01:18:38.612Z,929.58
2017-05-13T01:18:51.770Z,929.53
2017-05-13T01:19:04.417Z,929.58
2017-05-13T01:19:17.084Z,929.56
2017-05-13T01:19:29.740Z,929.55
2017-05-13T01:19:42.912Z,929.55
2017-05-13T01:19:56.112Z,929.58
2017-05-13T01:20:08.808Z,929.56
2017-05-13T01:20:21.975Z,929.55
2017-05-13T01:20:34.665Z,929.57
2017-05-13T01:20:47.273Z,929.57
2017-05-13T01:21:00.450Z,929.58
2017-05-13T01:21:13.600Z,929.57
2017-05-13T01:21:26.751Z,929.58
2017-05-13T01:21:38.911Z,929.56
2017-05-13T01:21:52.097Z,929.6
2017-05-13T01:22:05.283Z,929.57
2017-05-13T01:22:17.917Z,929.57
2017-05-13T01:22:31.011Z,929.58
2017-05-13T01:22:44.276Z,929.57
2017-05-13T01:22:57.455Z,929.57
2017-05-13T01:23:10.085Z,929.55
2017-05-13T01:23:23.312Z,929.53
2017-05-13T01:23:35.970Z,929.56
2017-05-13T01:23:49.150Z,929.57
2017-05-13T01:24:02.397Z,929.54
2017-05-13T01:24:15.572Z,929.53
2017-05-13T01:24:28.809Z,929.58
2017-05-13T01:24:42.000Z,929.57
2017-05-13T01:24:55.171Z,929.6
2017-05-13T01:25:08.342Z,929.58
2017-05-13T01:25:20.560Z,929.54
2017-05-13T01:25:33.753Z,929.6
2017-05-13T01:25:46.457Z,929.6
2017-05-13T01:25:59.625Z,929.59
2017-05-13T01:26:12.207Z,929.59
2017-05-13T01:26:25.381Z,929.59
2017-05-13T01:26:38.592Z,929.6
2017-05-13T01:26:51.270Z,929.6
2017-05-13T01:27:04.052Z,929.6
2017-05-13T01:27:17.235Z,929.62
2017-05-13T01:27:30.395Z,929.6
2017-05-13T01:27:43.587Z,929.63
2017-05-13T01:27:56.224Z,929.62
2017-05-13T01:28:09.380Z,929.59
2017-05-13T01:28:22.005Z,929.61
2017-05-13T01:28:35.164Z,929.63
2017-05-13T01:28:48.324Z,929.62
2017-05-13T01:29:01.519Z,929.6
2017-05-13T01:29:15.337Z,929.62
2017-05-13T01:29:28.522Z,929.64
2017-05-13T01:29:41.612Z,929.63
2017-05-13T01:29:54.309Z,929.6
2017-05-13T01:30:07.018Z,929.64
2017-05-13T01:30:19.173Z,929.62
2017-05-13T01:30:32.843Z,929.65
2017-05-13T01:30:46.859Z,929.63
2017-05-13T01:30:59.965Z,929.65
2017-05-13T01:31:13.089Z,929.61
2017-05-13T01:31:26.215Z,929.62
2017-05-13T01:31:39.419Z,929.62
2017-05-13T01:31:52.134Z,929.62
2017-05-13T01:32:05.269Z,929.63
2017-05-13T01:32:18.315Z,929.62
2017-05-13T01:32:31.473Z,929.61
2017-05-13T01:32:44.630Z,929.61
2017-05-13T01:32:57.916Z,929.63
2017-05-13T01:33:11.115Z,929.59
2017-05-13T01:33:23.728Z,929.62
2017-05-13T01:33:36.922Z,929.6
2017-05-13T01:33:50.077Z,929.6
2017-05-13T01:34:03.401Z,929.63
2017-05-13T01:34:16.073Z,929.6
2017-05-13T01:34:28.838Z,929.61
2017-05-13T01:34:42.067Z,929.63
2017-05-13T01:34:55.217Z,929.64
2017-05-13T01:35:08.361Z,929.61
2017-05-13T01:35:21.530Z,929.62
2017-05-13T01:35:34.707Z,929.58
2017-05-13T01:35:47.850Z,929.59
2017-05-13T01:36:01.006Z,929.62
2017-05-13T01:36:14.197Z,929.6
2017-05-13T01:36:26.396Z,929.63
2017-05-13T01:36:39.582Z,929.63
2017-05-13T01:36:52.679Z,929.63
2017-05-13T01:37:05.353Z,929.66
2017-05-13T01:37:18.549Z,929.61
2017-05-13T01:37:31.740Z,929.62
2017-05-13T01:37:44.369Z,929.61
2017-05-13T01:37:57.596Z,929.6
2017-05-13T01:38:10.701Z,929.64
2017-05-13T01:38:23.299Z,929.6
2017-05-13T01:38:36.421Z,929.6
2017-05-13T01:38:49.586Z,929.59
2017-05-13T01:39:02.778Z,929.62
2017-05-13T01:39:14.419Z,929.61
2017-05-13T01:39:27.620Z,929.6
2017-05-13T01:39:40.854Z,929.61
2017-05-13T01:39:53.999Z,929.61
2017-05-13T01:40:07.160Z,929.6
2017-05-13T01:40:19.336Z,929.6
2017-05-13T01:40:32.507Z,929.59
2017-05-13T01:40:45.200Z,929.61
2017-05-13T01:40:58.337Z,929.59
2017-05-13T01:41:11.494Z,929.59
2017-05-13T01:41:24.172Z,929.61
2017-05-13T01:41:37.329Z,929.6
2017-05-13T01:41:50.006Z,929.56
2017-05-13T01:42:03.158Z,929.57
2017-05-13T01:42:15.835Z,929.6
2017-05-13T01:42:28.467Z,929.6
2017-05-13T01:42:41.591Z,929.58
2017-05-13T01:42:54.796Z,929.57
2017-05-13T01:43:08.002Z,929.59
2017-05-13T01:43:21.089Z,929.58
2017-05-13T01:43:34.265Z,929.58
2017-05-13T01:43:47.368Z,929.58
2017-05-13T01:44:00.573Z,929.58
2017-05-13T01:44:13.699Z,929.57
2017-05-13T01:44:25.373Z,929.57
2017-05-13T01:44:38.578Z,929.62
2017-05-13T01:44:51.260Z,929.62
2017-05-13T01:45:04.443Z,929.62
2017-05-13T01:45:16.643Z,929.6
2017-05-13T01:45:29.295Z,929.59
2017-05-13T01:45:41.936Z,929.62
2017-05-13T01:45:55.100Z,929.62
2017-05-13T01:46:07.763Z,929.58
2017-05-13T01:46:20.970Z,929.6
2017-05-13T01:46:34.208Z,929.61
2017-05-13T01:46:47.405Z,929.64
2017-05-13T01:47:00.593Z,929.6
2017-05-13T01:47:13.251Z,929.61
2017-05-13T01:47:26.116Z,929.62
2017-05-13T01:47:38.760Z,929.61
2017-05-13T01:47:51.907Z,929.62
2017-05-13T01:48:05.129Z,929.62
2017-05-13T01:48:18.305Z,929.61
2017-05-13T01:48:31.480Z,929.6
2017-05-13T01:48:44.646Z,929.6
2017-05-13T01:48:57.280Z,929.6
2017-05-13T01:49:10.419Z,929.62
2017-05-13T01:49:23.599Z,929.65
2017-05-13T01:49:36.249Z,929.6
2017-05-13T01:49:48.889Z,929.61
2017-05-13T01:50:01.974Z,929.62
2017-05-13T01:50:14.585Z,929.62
2017-05-13T01:50:27.746Z,929.62
2017-05-13T01:50:40.946Z,929.63
2017-05-13T01:50:53.549Z,929.64
2017-05-13T01:51:06.713Z,929.63
2017-05-13T01:51:19.387Z,929.62
2017-05-13T01:51:32.604Z,929.61
2017-05-13T01:51:45.271Z,929.63
2017-05-13T01:51:57.965Z,929.64
2017-05-13T01:52:10.179Z,929.61
2017-05-13T01:52:23.329Z,929.6
2017-05-13T01:52:35.998Z,929.61
2017-05-13T01:52:49.194Z,929.64
2017-05-13T01:53:02.370Z,929.63
2017-05-13T01:53:15.020Z,929.62
2017-05-13T01:53:27.745Z,929.6
2017-05-13T01:53:40.917Z,929.62
2017-05-13T01:53:54.082Z,929.64
2017-05-13T01:54:06.242Z,929.65
2017-05-13T01:54:18.950Z,929.6
2017-05-13T01:54:32.169Z,929.64
2017-05-13T01:54:44.792Z,929.64
2017-05-13T01:54:57.495Z,929.66
2017-05-13T01:55:10.683Z,929.64
2017-05-13T01:55:23.405Z,929.61
2017-05-13T01:55:36.616Z,929.61
2017-05-13T01:55:49.778Z,929.66
2017-05-13T01:56:03.012Z,929.63
2017-05-13T01:56:16.135Z,929.65
2017-05-13T01:56:28.879Z,929.63
2017-05-13T01:56:42.033Z,929.62
2017-05-13T01:56:55.204Z,929.62
2017-05-13T01:57:08.433Z,929.64
2017-05-13T01:57:21.625Z,929.65
2017-05-13T01:57:34.321Z,929.68
2017-05-13T01:57:47.492Z,929.63
2017-05-13T01:58:00.642Z,929.62
2017-05-13T01:58:13.895Z,929.69
2017-05-13T01:58:27.065Z,929.68
2017-05-13T01:58:40.675Z,929.68
2017-05-13T01:58:53.821Z,929.68
2017-05-13T01:59:06.992Z,929.67
2017-05-13T01:59:20.252Z,929.67
2017-05-13T01:59:32.938Z,929.67
2017-05-13T01:59:46.221Z,929.66
2017-05-13T01:59:59.437Z,929.69
2017-05-13T02:00:12.621Z,929.68
2017-05-13T02:00:25.268Z,929.67
2017-05-13T02:00:38.444Z,929.65
2017-05-13T02:00:51.656Z,929.67
2017-05-13T02:01:05.615Z,929.63
2017-05-13T02:01:18.837Z,929.66
2017-05-13T02:01:31.502Z,929.67
2017-05-13T02:01:44.632Z,929.69
2017-05-13T02:01:56.787Z,929.68
2017-05-13T02:02:09.505Z,929.66
2017-05-13T02:02:22.707Z,929.64
2017-05-13T02:02:36.039Z,929.67
2017-05-13T02:02:49.199Z,929.7
2017-05-13T02:03:02.354Z,929.69
2017-05-13T02:03:15.002Z,929.66
2017-05-13T02:03:28.242Z,929.68
2017-05-13T02:03:41.424Z,929.65
2017-05-13T02:03:54.629Z,929.69
2017-05-13T02:04:07.303Z,929.65
2017-05-13T02:04:19.502Z,929.66
2017-05-13T02:04:32.665Z,929.69
2017-05-13T02:04:45.316Z,929.66
2017-05-13T02:04:58.495Z,929.67
2017-05-13T02:05:11.171Z,929.65
2017-05-13T02:05:24.376Z,929.66
2017-05-13T02:05:37.524Z,929.68
2017-05-13T02:05:50.681Z,929.69
2017-05-13T02:06:03.971Z,929.69
2017-05-13T02:06:16.645Z,929.66
2017-05-13T02:06:29.790Z,929.68
2017-05-13T02:06:42.414Z,929.7
2017-05-13T02:06:55.520Z,929.7
2017-05-13T02:07:08.656Z,929.72
2017-05-13T02:07:21.351Z,929.74
2017-05-13T02:07:34.526Z,929.74
2017-05-13T02:07:47.650Z,929.72
2017-05-13T02:08:00.286Z,929.72
2017-05-13T02:08:13.397Z,929.73
2017-05-13T02:08:26.495Z,929.76
2017-05-13T02:08:39.727Z,929.75
2017-05-13T02:08:52.875Z,929.73
2017-05-13T02:09:06.056Z,929.74
2017-05-13T02:09:19.175Z,929.74
2017-05-13T02:09:31.855Z,929.75
2017-05-13T02:09:45.008Z,929.75
2017-05-13T02:09:58.172Z,929.76
2017-05-13T02:10:11.344Z,929.75
2017-05-13T02:10:24.514Z,929.76
2017-05-13T02:10:37.620Z,929.76
2017-05-13T02:10:50.749Z,929.77
2017-05-13T02:11:03.883Z,929.79
2017-05-13T02:11:17.023Z,929.76
2017-05-13T02:11:30.196Z,929.74
2017-05-13T02:11:42.857Z,929.75
2017-05-13T02:11:56.051Z,929.73
2017-05-13T02:12:09.236Z,929.74
2017-05-13T02:12:21.404Z,929.76
2017-05-13T02:12:34.596Z,929.75
2017-05-13T02:12:47.709Z,929.72
2017-05-13T02:12:59.946Z,929.73
2017-05-13T02:13:13.150Z,929.73
2017-05-13T02:13:26.393Z,929.72
2017-05-13T02:13:39.581Z,929.73
2017-05-13T02:13:52.289Z,929.73
2017-05-13T02:14:05.491Z,929.73
2017-05-13T02:14:18.645Z,929.72
2017-05-13T02:14:31.341Z,929.72
2017-05-13T02:14:44.473Z,929.7
2017-05-13T02:14:57.622Z,929.72
2017-05-13T02:15:10.730Z,929.73
2017-05-13T02:15:23.619Z,929.73
2017-05-13T02:15:35.762Z,929.71
2017-05-13T02:15:48.988Z,929.72
2017-05-13T02:16:01.618Z,929.72
2017-05-13T02:16:14.250Z,929.74
2017-05-13T02:16:27.443Z,929.73
2017-05-13T02:16:40.610Z,929.74
2017-05-13T02:16:53.756Z,929.74
2017-05-13T02:17:06.905Z,929.72
2017-05-13T02:17:20.030Z,929.73
2017-05-13T02:17:33.254Z,929.72
2017-05-13T02:17:46.655Z,929.7
2017-05-13T02:17:59.351Z,929.71
2017-05-13T02:18:11.977Z,929.75
2017-05-13T02:18:25.155Z,929.75
2017-05-13T02:18:38.367Z,929.74
2017-05-13T02:18:51.516Z,929.73
2017-05-13T02:19:04.187Z,929.75
2017-05-13T02:19:17.355Z,929.74
2017-05-13T02:19:30.599Z,929.74
2017-05-13T02:19:43.744Z,929.78
2017-05-13T02:19:56.981Z,929.77
2017-05-13T02:20:09.703Z,929.77
2017-05-13T02:20:22.444Z,929.78
2017-05-13T02:20:35.777Z,929.79
2017-05-13T02:20:48.933Z,929.78
2017-05-13T02:21:02.080Z,929.78
2017-05-13T02:21:15.223Z,929.77
2017-05-13T02:21:28.353Z,929.75
2017-05-13T02:21:41.555Z,929.76
2017-05-13T02:21:54.787Z,929.75
2017-05-13T02:22:07.408Z,929.74
2017-05-13T02:22:20.065Z,929.76
2017-05-13T02:22:32.214Z,929.78
2017-05-13T02:22:44.358Z,929.77
2017-05-13T02:22:57.533Z,929.75
2017-05-13T02:23:10.693Z,929.74
2017-05-13T02:23:23.907Z,929.74
2017-05-13T02:23:37.060Z,929.73
2017-05-13T02:23:50.265Z,929.73
2017-05-13T02:24:02.953Z,929.71
2017-05-13T02:24:15.656Z,929.7
2017-05-13T02:24:28.359Z,929.72
2017-05-13T02:24:41.524Z,929.73
2017-05-13T02:24:54.722Z,929.7
2017-05-13T02:25:07.909Z,929.69
2017-05-13T02:25:21.091Z,929.72
2017-05-13T02:25:33.225Z,929.75
2017-05-13T02:25:45.904Z,929.72
2017-05-13T02:25:59.169Z,929.7
2017-05-13T02:26:11.824Z,929.72
2017-05-13T02:26:24.481Z,929.73
2017-05-13T02:26:37.657Z,929.71
2017-05-13T02:26:50.367Z,929.72
2017-05-13T02:27:03.555Z,929.72
2017-05-13T02:27:16.200Z,929.73
2017-05-13T02:27:28.402Z,929.74
2017-05-13T02:27:41.596Z,929.73
2017-05-13T02:27:54.775Z,929.74
2017-05-13T02:28:07.451Z,929.73
2017-05-13T02:28:20.917Z,929.72
2017-05-13T02:28:34.394Z,929.74
2017-05-13T02:28:47.543Z,929.72
2017-05-13T02:29:00.154Z,929.72
2017-05-13T02:29:14.012Z,929.74
2017-05-13T02:29:27.132Z,929.73
2017-05-13T02:29:40.335Z,929.73
2017-05-13T02:29:53.555Z,929.78
2017-05-13T02:30:06.221Z,929.72
2017-05-13T02:30:18.381Z,929.74
2017-05-13T02:30:31.542Z,929.73
2017-05-13T02:30:44.762Z,929.73
2017-05-13T02:30:57.436Z,929.72
2017-05-13T02:31:10.636Z,929.74
2017-05-13T02:31:23.346Z,929.7
2017-05-13T02:31:36.745Z,929.73
2017-05-13T02:31:49.416Z,929.76
2017-05-13T02:32:02.579Z,929.72
2017-05-13T02:32:15.799Z,929.74
2017-05-13T02:32:28.415Z,929.73
2017-05-13T02:32:41.801Z,929.72
2017-05-13T02:32:54.956Z,929.72
2017-05-13T02:33:07.129Z,929.72
2017-05-13T02:33:20.360Z,929.7
2017-05-13T02:33:33.065Z,929.74
2017-05-13T02:33:46.270Z,929.72
2017-05-13T02:33:58.959Z,929.71
2017-05-13T02:34:11.619Z,929.73
2017-05-13T02:34:24.790Z,929.73
2017-05-13T02:34:37.934Z,929.72
2017-05-13T02:34:50.066Z,929.72
2017-05-13T02:35:03.219Z,929.7
2017-05-13T02:35:15.848Z,929.69
2017-05-13T02:35:28.014Z,929.72
2017-05-13T02:35:41.156Z,929.73
2017-05-13T02:35:54.300Z,929.74
2017-05-13T02:36:07.513Z,929.71
2017-05-13T02:36:19.624Z,929.75
2017-05-13T02:36:32.746Z,929.72
2017-05-13T02:36:45.397Z,929.71
2017-05-13T02:36:58.524Z,929.72
2017-05-13T02:37:11.650Z,929.7
2017-05-13T02:37:24.329Z,929.71
2017-05-13T02:37:37.563Z,929.78
2017-05-13T02:37:50.493Z,929.74
2017-05-13T02:38:02.691Z,929.73
2017-05-13T02:38:15.349Z,929.71
2017-05-13T02:38:27.963Z,929.69
2017-05-13T02:38:41.093Z,929.67
2017-05-13T02:38:54.239Z,929.71
2017-05-13T02:39:07.419Z,929.73
2017-05-13T02:39:21.910Z,929.71
2017-05-13T02:39:35.102Z,929.69
2017-05-13T02:39:48.313Z,929.71
2017-05-13T02:40:01.429Z,929.72
2017-05-13T02:40:14.568Z,929.73
2017-05-13T02:40:27.788Z,929.72
2017-05-13T02:40:41.062Z,929.74
2017-05-13T02:40:54.302Z,929.74
2017-05-13T02:41:08.208Z,929.71
2017-05-13T02:41:20.922Z,929.72
2017-05-13T02:41:34.069Z,929.71
2017-05-13T02:41:47.312Z,929.7
2017-05-13T02:41:59.975Z,929.69
2017-05-13T02:42:12.649Z,929.69
2017-05-13T02:42:25.358Z,929.69